Latest Weather Observations for Mandurah

IDW60801

Issued at 11:32 pm WST Friday 27 March 2015 (issued every 30 minutes, with the page automatically refreshed every 10 minutes)

About weather observations | Map of weather stations | Latest weather observations for WA | Other Formats
Station Details ID: 009977 Name: MANDURAH Lat: -32.52 Lon: 115.71 Height: 3.0 m
Data from the previous 72 hours. | See also: Recent months at Mandurah
Date/Time
WST
Temp
°C
App
Temp
°C
Dew
Point
Rel
Hum
%
Delta-T
°C
Wind Press
QNH
hPa
Press
MSL
hPa
Rain
since 9 am
mm
Dir
 
Spd
km/h
Gust
km/h
Spd
kts
Gust
kts
27/11:30pm 19.6 20.6 16.4 82 1.9 SE 6 9 3 5 1019.2 1019.2 0.0
27/11:00pm 20.0 21.3 17.6 86 1.5 SE 7 9 4 5 1019.3 1019.3 0.0
27/10:30pm 20.2 21.7 17.6 85 1.6 SSE 6 7 3 4 1019.5 1019.5 0.0
27/10:00pm 20.4 21.8 17.4 83 1.8 SSE 6 9 3 5 1019.7 1019.7 0.0
27/09:30pm 20.8 22.4 18.2 85 1.6 SSE 7 11 4 6 1020.0 1020.0 0.0
27/09:00pm 20.9 21.8 17.5 81 2.1 SSE 9 13 5 7 1019.8 1019.8 0.0
27/08:30pm 21.2 21.8 17.8 81 2.1 SSE 11 17 6 9 1019.8 1019.8 0.0
27/08:00pm 21.5 21.5 17.1 76 2.7 S 13 20 7 11 1019.5 1019.5 0.0
27/07:30pm 21.7 20.9 16.0 70 3.4 S 15 20 8 11 1019.1 1019.1 0.0
27/07:00pm 21.9 20.8 15.3 66 3.9 S 15 24 8 13 1018.5 1018.5 0.0
27/06:30pm 22.1 20.6 15.2 65 4.1 SSW 17 24 9 13 1018.3 1018.3 0.0
27/06:00pm 22.6 21.5 15.2 63 4.4 SW 15 24 8 13 1018.2 1018.2 0.0
27/05:30pm 22.6 20.7 15.7 65 4.1 SW 20 28 11 15 1018.1 1018.1 0.0
27/05:00pm 23.0 20.9 16.1 65 4.2 SW 22 30 12 16 1018.0 1018.0 0.0
27/04:30pm 23.6 21.8 15.9 62 4.7 SW 20 30 11 16 1017.9 1017.9 0.0
27/04:00pm 23.5 21.1 15.3 60 4.9 SW 22 32 12 17 1017.8 1017.8 0.0
27/03:30pm 24.0 22.0 15.5 59 5.1 WSW 20 28 11 15 1018.0 1018.0 0.0
27/03:00pm 23.6 20.6 14.9 58 5.2 WSW 24 33 13 18 1018.0 1018.0 0.0
27/02:30pm 24.0 21.6 15.5 59 5.1 WSW 22 32 12 17 1018.1 1018.1 0.0
27/02:00pm 24.9 22.4 15.2 54 5.8 WSW 22 30 12 16 1018.3 1018.3 0.0
27/01:30pm 26.0 25.2 15.1 51 6.6 SW 13 22 7 12 1018.6 1018.6 0.0
27/01:00pm 25.3 24.3 12.2 44 7.5 SSE 9 15 5 8 1018.9 1018.9 0.0
27/12:30pm 24.8 23.1 12.4 46 7.1 SSE 13 19 7 10 1019.4 1019.4 0.0
27/12:00pm 24.4 24.6 14.2 53 6.0 W 6 7 3 4 1019.7 1019.7 0.0
27/11:30am 24.9 24.1 12.8 47 7.0 SE 9 15 5 8 1020.1 1020.1 0.0
27/11:00am 25.1 24.2 12.7 46 7.1 ESE 9 13 5 7 1020.4 1020.4 0.0
27/10:30am 24.9 24.4 13.8 50 6.5 E 9 20 5 11 1020.5 1020.5 0.0
27/10:00am 23.7 23.6 13.8 53 5.8 E 7 15 4 8 1020.5 1020.5 0.0
27/09:30am 23.0 22.5 13.8 56 5.4 E 9 15 5 8 1020.8 1020.8 0.0
27/09:00am 21.1 20.5 13.5 62 4.4 E 9 13 5 7 1021.0 1021.0 2.8
27/08:30am 20.5 19.4 13.2 63 4.2 E 11 19 6 10 1020.9 1020.9 2.8
27/08:00am 19.1 18.8 14.4 74 2.7 ESE 9 15 5 8 1020.8 1020.8 2.8
27/07:30am 18.6 18.3 14.3 76 2.5 ESE 9 15 5 8 1020.9 1020.9 2.8
27/07:00am 18.6 18.5 14.9 79 2.1 SE 9 11 5 6 1020.8 1020.8 2.8
27/06:30am 18.7 18.4 14.4 76 2.5 SSE 9 13 5 7 1021.0 1021.0 2.8
27/06:00am 18.4 17.9 13.7 74 2.7 SE 9 15 5 8 1020.5 1020.5 2.8
27/05:30am 18.8 18.3 13.9 73 2.8 ESE 9 13 5 7 1020.1 1020.1 2.8
27/05:00am 18.9 18.2 13.3 70 3.2 E 9 17 5 9 1019.9 1019.9 2.6
27/04:30am 19.0 18.4 13.6 71 3.1 ESE 9 15 5 8 1020.0 1020.0 2.6
27/04:00am 18.9 18.7 13.5 71 3.1 ESE 7 9 4 5 1020.0 1020.0 2.6
27/03:30am 18.5 17.5 13.4 72 2.9 ESE 11 17 6 9 1020.1 1020.1 2.6
27/03:00am 18.4 18.7 14.9 80 2.0 ESE 7 9 4 5 1020.4 1020.4 2.6
27/02:30am 18.5 18.7 14.6 78 2.3 ESE 7 11 4 6 1020.7 1020.7 2.6
27/02:00am 18.7 18.4 14.4 76 2.5 ESE 9 11 5 6 1020.9 1020.9 2.6
27/01:30am 18.6 18.3 14.3 76 2.5 ESE 9 13 5 7 1021.1 1021.1 2.6
27/01:00am 18.8 18.0 14.1 74 2.7 ESE 11 13 6 7 1021.3 1021.3 2.6
27/12:30am 18.7 18.6 15.0 79 2.2 SE 9 13 5 7 1021.4 1021.4 2.6
27/12:00am 18.8 18.8 15.1 79 2.2 ENE 9 15 5 8 1022.1 1022.1 2.4
 
Date/Time
WST
Temp
°C
App
Temp
°C
Dew
Point
Rel
Hum
%
Delta-T
°C
Wind Press
QNH
hPa
Press
MSL
hPa
Rain
since 9 am
mm
Dir
 
Spd
km/h
Gust
km/h
Spd
kts
Gust
kts
26/11:30pm 19.5 19.5 15.2 76 2.5 NE 9 13 5 7 1022.3 1022.3 2.0
26/11:00pm 19.5 20.2 16.2 81 2.0 NE 7 9 4 5 1022.1 1022.1 1.8
26/10:30pm 20.5 17.8 15.5 73 3.0 NNE 24 30 13 16 1022.4 1022.4 0.8
26/10:00pm 21.7 18.3 15.8 69 3.5 NNW 28 41 15 22 1022.5 1022.5 0.4
26/09:30pm 22.1 20.4 15.7 67 3.8 NW 19 24 10 13 1022.2 1022.2 0.2
26/09:00pm 22.7 21.8 16.9 70 3.5 NW 17 26 9 14 1021.9 1021.9 0.0
26/08:30pm 23.7 22.4 13.6 53 5.9 WNW 13 17 7 9 1021.3 1021.3 0.0
26/08:00pm 23.2 21.4 16.0 64 4.3 NNW 20 24 11 13 1021.2 1021.2 0.0
26/07:30pm 23.9 23.2 16.4 63 4.6 N 15 19 8 10 1020.8 1020.8 0.0
26/07:00pm 27.3 24.9 4.4 23 11.6 E 6 9 3 5 1020.1 1020.1 0.0
26/06:30pm 27.8 25.2 4.2 22 11.9 ENE 7 11 4 6 1019.7 1019.7 0.0
26/06:00pm 28.4 26.0 5.3 23 11.9 ENE 7 13 4 7 1019.6 1019.6 0.0
26/05:30pm 28.6 25.4 6.7 25 11.6 ENE 13 19 7 10 1019.6 1019.6 0.0
26/05:00pm 29.5 26.3 4.9 21 12.7 ENE 11 20 6 11 1019.5 1019.5 0.0
26/04:30pm 30.0 27.1 4.6 20 13.1 E 9 17 5 9 1019.4 1019.4 0.0
26/04:00pm 30.2 26.4 4.0 19 13.4 ENE 13 19 7 10 1019.3 1019.3 0.0
26/03:30pm 31.6 29.0 4.4 18 14.1 ESE 7 15 4 8 1019.3 1019.3 0.0
26/03:00pm 31.8 28.7 3.8 17 14.4 E 9 15 5 8 1019.5 1019.5 0.0
26/02:30pm 31.2 28.6 6.3 21 13.3 E 9 17 5 9 1019.9 1019.9 0.0
26/02:00pm 30.8 26.7 4.5 19 13.6 E 15 26 8 14 1020.3 1020.3 0.0
26/01:30pm 30.8 26.7 6.0 21 13.2 ENE 17 28 9 15 1020.8 1020.8 0.0
26/01:00pm 30.1 26.6 7.3 24 12.3 NE 15 26 8 14 1021.2 1021.2 0.0
26/12:30pm 29.5 25.7 7.4 25 11.9 NE 17 24 9 13 1021.6 1021.6 0.0
26/12:00pm 28.3 24.4 8.6 29 10.7 NE 19 30 10 16 1022.2 1022.2 0.0
26/11:30am 27.7 23.8 8.6 30 10.4 ENE 19 28 10 15 1022.5 1022.5 0.0
26/11:00am 27.1 23.0 8.0 30 10.2 ENE 19 28 10 15 1022.9 1022.9 0.0
26/10:30am 25.8 22.4 9.2 35 9.1 ENE 17 30 9 16 1023.4 1023.4 0.0
26/10:00am 24.1 20.4 10.0 41 7.7 NE 20 28 11 15 1023.7 1023.7 0.0
26/09:30am 23.0 19.0 9.0 41 7.5 NE 20 35 11 19 1023.8 1023.8 0.0
26/09:00am 21.8 18.4 9.0 44 6.8 ENE 17 24 9 13 1023.8 1023.8 0.0
26/08:30am 20.0 16.3 9.6 51 5.5 ENE 19 28 10 15 1023.9 1023.9 0.0
26/08:00am 17.9 16.1 9.5 58 4.4 E 9 15 5 8 1023.8 1023.8 0.0
26/07:30am 16.7 14.2 9.6 63 3.7 E 13 20 7 11 1023.7 1023.7 0.0
26/07:00am 16.0 13.1 9.7 66 3.3 E 15 24 8 13 1023.7 1023.7 0.0
26/06:30am 15.8 13.0 9.9 68 3.1 E 15 24 8 13 1023.6 1023.6 0.0
26/06:00am 15.9 13.1 10.0 68 3.1 E 15 22 8 12 1023.5 1023.5 0.0
26/05:30am 16.1 12.6 10.2 68 3.1 E 19 32 10 17 1023.4 1023.4 0.0
26/05:00am 16.1 13.0 10.2 68 3.1 E 17 30 9 16 1023.1 1023.1 0.0
26/04:30am 16.4 13.0 10.5 68 3.1 E 19 30 10 16 1023.2 1023.2 0.0
26/04:00am 16.6 13.6 10.7 68 3.1 E 17 28 9 15 1023.1 1023.1 0.0
26/03:30am 16.8 13.4 10.6 67 3.3 E 19 32 10 17 1023.4 1023.4 0.0
26/03:00am 17.0 14.0 10.6 66 3.4 E 17 28 9 15 1023.3 1023.3 0.0
26/02:30am 17.3 13.8 10.9 66 3.4 E 20 33 11 18 1023.2 1023.2 0.0
26/02:00am 17.4 14.1 10.8 65 3.5 E 19 33 10 18 1023.5 1023.5 0.0
26/01:30am 17.7 14.4 11.0 65 3.6 ESE 19 30 10 16 1023.7 1023.7 0.0
26/01:00am 18.0 14.6 11.1 64 3.7 E 20 33 11 18 1023.7 1023.7 0.0
26/12:30am 18.3 15.1 11.1 63 3.9 ESE 19 30 10 16 1023.8 1023.8 0.0
26/12:00am 18.8 16.0 11.4 62 4.0 ESE 17 30 9 16 1023.9 1023.9 0.0
 
Date/Time
WST
Temp
°C
App
Temp
°C
Dew
Point
Rel
Hum
%
Delta-T
°C
Wind Press
QNH
hPa
Press
MSL
hPa
Rain
since 9 am
mm
Dir
 
Spd
km/h
Gust
km/h
Spd
kts
Gust
kts
25/11:30pm 19.3 16.2 11.6 61 4.2 ESE 19 30 10 16 1023.8 1023.8 0.0
25/11:00pm 19.8 16.7 11.6 59 4.5 ESE 19 32 10 17 1023.6 1023.6 0.0
25/10:30pm 20.5 17.1 11.2 55 5.1 ESE 20 33 11 18 1023.5 1023.5 0.0
25/10:00pm 21.0 16.7 10.8 52 5.6 ESE 24 33 13 18 1023.4 1023.4 0.0
25/09:30pm 21.1 18.3 8.7 45 6.5 SE 13 19 7 10 1023.3 1023.3 0.0
25/09:00pm 21.7 19.0 7.2 39 7.4 ESE 11 17 6 9 1023.1 1023.1 0.0
25/08:30pm 22.1 19.4 7.5 39 7.6 SE 11 15 6 8 1022.9 1022.9 0.0
25/08:00pm 22.7 20.1 7.7 38 7.8 SE 11 15 6 8 1022.7 1022.7 0.0
25/07:30pm 23.3 20.5 7.0 35 8.4 ESE 11 19 6 10 1022.6 1022.6 0.0
25/07:00pm 24.0 21.1 6.7 33 8.9 ESE 11 15 6 8 1022.6 1022.6 0.0
25/06:30pm 24.8 21.4 6.1 30 9.6 ESE 13 17 7 9 1022.3 1022.3 0.0
25/06:00pm 25.9 22.5 6.0 28 10.2 ESE 13 24 7 13 1022.2 1022.2 0.0
25/05:30pm 26.8 22.6 5.7 26 10.9 ESE 17 24 9 13 1022.1 1022.1 0.0
25/05:00pm 27.6 24.2 5.8 25 11.3 ESE 13 20 7 11 1022.1 1022.1 0.0
25/04:30pm 28.2 25.1 5.7 24 11.7 ESE 11 22 6 12 1022.1 1022.1 0.0
25/04:00pm 28.3 24.9 5.8 24 11.7 E 13 22 7 12 1022.1 1022.1 0.0
25/03:30pm 28.3 24.9 5.8 24 11.7 ENE 13 28 7 15 1022.3 1022.3 0.0
25/03:00pm 28.0 24.4 5.0 23 11.8 E 13 20 7 11 1022.6 1022.6 0.0
25/02:30pm 27.2 23.7 5.5 25 11.2 ESE 13 20 7 11 1022.8 1022.8 0.0
25/02:00pm 28.0 25.3 5.6 24 11.6 ENE 9 19 5 10 1023.0 1023.0 0.0
25/01:30pm 28.0 24.7 6.2 25 11.4 ENE 13 24 7 13 1023.3 1023.3 0.0
25/01:00pm 27.7 24.4 6.5 26 11.1 E 13 22 7 12 1023.8 1023.8 0.0
25/12:30pm 26.8 23.6 6.8 28 10.5 E 13 26 7 14 1024.1 1024.1 0.0
25/12:00pm 26.2 22.7 7.3 30 10.0 E 15 24 8 13 1024.5 1024.5 0.0
25/11:30am 24.4 21.0 7.5 34 8.9 ESE 15 22 8 12 1024.8 1024.8 0.0
25/11:00am 23.9 20.9 7.5 35 8.6 E 13 20 7 11 1025.1 1025.1 0.0
25/10:30am 23.1 19.8 8.0 38 7.9 E 15 22 8 12 1025.4 1025.4 0.0
25/10:00am 21.2 18.3 8.1 43 6.8 E 13 20 7 11 1025.6 1025.6 0.0
25/09:30am 20.3 17.4 8.0 45 6.4 ESE 13 20 7 11 1025.7 1025.7 0.0
25/09:00am 18.4 15.9 8.1 51 5.2 E 11 22 6 12 1025.6 1025.6 0.0
25/08:30am 17.1 14.2 8.3 56 4.5 E 13 24 7 13 1025.6 1025.6 0.0
25/08:00am 16.6 13.1 8.6 59 4.1 E 17 24 9 13 1025.6 1025.6 0.0
25/07:30am 15.9 12.3 8.4 61 3.8 E 17 28 9 15 1025.6 1025.6 0.0
25/07:00am 15.3 12.8 8.3 63 3.5 ESE 11 19 6 10 1025.3 1025.3 0.0
25/06:30am 15.3 12.4 8.1 62 3.6 E 13 28 7 15 1025.1 1025.1 0.0
25/06:00am 15.3 12.3 7.6 60 3.8 ESE 13 24 7 13 1024.9 1024.9 0.0
25/05:30am 15.5 12.1 7.5 59 4.0 ESE 15 26 8 14 1024.4 1024.4 0.0
25/05:00am 15.6 12.5 7.4 58 4.0 ESE 13 19 7 10 1024.1 1024.1 0.0
25/04:30am 15.7 12.2 7.2 57 4.2 ESE 15 22 8 12 1023.8 1023.8 0.0
25/04:00am 15.9 12.4 7.1 56 4.3 ESE 15 26 8 14 1023.6 1023.6 0.0
25/03:30am 16.1 12.2 7.3 56 4.4 ESE 17 28 9 15 1023.5 1023.5 0.0
25/03:00am 16.4 12.5 7.1 54 4.6 ESE 17 24 9 13 1023.4 1023.4 0.0
25/02:30am 16.6 13.1 7.0 53 4.8 ESE 15 22 8 12 1023.4 1023.4 0.0
25/02:00am 17.0 13.0 6.8 51 5.0 ESE 17 28 9 15 1023.5 1023.5 0.0
25/01:30am 17.3 13.3 6.5 49 5.3 ESE 17 26 9 14 1023.3 1023.3 0.0
25/01:00am 17.6 13.6 6.8 49 5.3 SE 17 26 9 14 1023.4 1023.4 0.0
25/12:30am 17.9 13.9 6.7 48 5.6 SE 17 26 9 14 1023.5 1023.5 0.0
25/12:00am 18.1 14.1 6.6 47 5.7 SE 17 24 9 13 1023.4 1023.4 0.0

Other Formats:

Comma delimited format used in spreadsheet applications
http://www.bom.gov.au/fwo/IDW60801/IDW60801.94605.axf

JavaScript Object Notation format (JSON) in row-major order
http://www.bom.gov.au/fwo/IDW60801/IDW60801.94605.json